createdAt,value
2023-04-16T00:01:35.012Z,64.64
2023-04-16T00:04:01.933Z,64.56
2023-04-16T00:06:28.700Z,63.98
2023-04-16T00:08:55.365Z,65.27
2023-04-16T00:11:22.250Z,66.94
2023-04-16T00:13:49.123Z,66.58
2023-04-16T00:16:16.169Z,66.83
2023-04-16T00:18:42.951Z,66.45
2023-04-16T00:21:09.657Z,66.67
2023-04-16T00:23:36.332Z,67.14
2023-04-16T00:26:02.980Z,67.07
2023-04-16T00:28:29.754Z,68.34
2023-04-16T00:30:56.382Z,68.19
2023-04-16T00:33:24.311Z,67.75
2023-04-16T00:35:51.269Z,68.98
2023-04-16T00:38:18.254Z,68.99
2023-04-16T00:40:44.887Z,68.98
2023-04-16T00:43:11.452Z,68.75
2023-04-16T00:45:38.578Z,69.16
2023-04-16T00:48:05.976Z,70.01
2023-04-16T00:50:33.656Z,71.28
2023-04-16T00:53:01.630Z,71.51
2023-04-16T00:55:28.420Z,71.46
2023-04-16T00:57:55.039Z,72.63
2023-04-16T01:00:21.686Z,72.62
2023-04-16T01:02:48.529Z,72.57
2023-04-16T01:05:15.712Z,73.58
2023-04-16T01:07:42.357Z,73.10
2023-04-16T01:10:09.077Z,73.60
2023-04-16T01:12:35.878Z,73.75
2023-04-16T01:15:02.894Z,74.08
2023-04-16T01:17:29.533Z,74.00
2023-04-16T01:20:00.363Z,73.99
2023-04-16T01:22:28.615Z,74.08
2023-04-16T01:24:55.203Z,75.47
2023-04-16T01:27:21.744Z,75.32
2023-04-16T01:29:48.456Z,76.13
2023-04-16T01:32:15.085Z,76.11
2023-04-16T01:34:41.798Z,76.41
2023-04-16T01:37:08.516Z,76.11
2023-04-16T01:39:35.097Z,76.89
2023-04-16T01:42:02.342Z,76.14
2023-04-16T01:44:29.064Z,76.23
2023-04-16T01:46:55.756Z,76.85
2023-04-16T01:49:23.172Z,76.91
2023-04-16T01:51:49.826Z,77.68
2023-04-16T01:54:16.432Z,77.78
2023-04-16T01:56:43.121Z,78.85
2023-04-16T01:59:09.843Z,78.79
2023-04-16T02:01:36.662Z,78.94
2023-04-16T02:04:03.433Z,78.00
2023-04-16T02:06:30.632Z,77.34
2023-04-16T02:08:57.214Z,76.79
2023-04-16T02:11:23.760Z,76.55
2023-04-16T02:13:50.553Z,76.90
2023-04-16T02:16:17.141Z,76.46
2023-04-16T02:18:43.789Z,76.76
2023-04-16T02:21:10.495Z,76.94
2023-04-16T02:23:37.453Z,78.37
2023-04-16T02:26:04.187Z,78.25
2023-04-16T02:28:30.971Z,77.67
2023-04-16T02:30:57.576Z,78.05
2023-04-16T02:33:26.460Z,78.70
2023-04-16T02:35:53.219Z,77.79
2023-04-16T02:38:19.955Z,77.76
2023-04-16T02:40:46.637Z,77.65
2023-04-16T02:43:13.186Z,78.34
2023-04-16T02:45:39.809Z,77.05
2023-04-16T02:48:08.744Z,77.01
2023-04-16T02:50:35.409Z,76.36
2023-04-16T02:53:02.101Z,78.02
2023-04-16T02:55:29.549Z,78.51
2023-04-16T02:57:56.174Z,78.20
2023-04-16T03:00:22.878Z,77.49
2023-04-16T03:02:49.621Z,78.24
2023-04-16T03:05:16.353Z,79.57
2023-04-16T03:07:42.971Z,80.26
2023-04-16T03:10:10.263Z,80.82
2023-04-16T03:12:36.827Z,80.92
2023-04-16T03:15:03.646Z,82.34
2023-04-16T03:17:30.418Z,82.52
2023-04-16T03:19:57.072Z,82.86
2023-04-16T03:22:23.762Z,82.94
2023-04-16T03:24:50.376Z,82.77
2023-04-16T03:27:16.979Z,83.35
2023-04-16T03:29:43.682Z,83.47
2023-04-16T03:32:11.596Z,82.76
2023-04-16T03:34:39.761Z,83.72
2023-04-16T03:37:06.639Z,83.59
2023-04-16T03:39:34.568Z,83.63
2023-04-16T03:42:02.234Z,83.71
2023-04-16T03:44:29.081Z,83.22
2023-04-16T03:46:55.841Z,82.11
2023-04-16T03:49:22.615Z,81.71
2023-04-16T03:51:49.300Z,80.92
2023-04-16T03:54:15.984Z,81.29
2023-04-16T03:56:43.083Z,81.10
2023-04-16T03:59:10.271Z,80.23
2023-04-16T04:01:37.056Z,81.63
2023-04-16T04:04:04.019Z,81.33
2023-04-16T04:06:31.141Z,80.66
2023-04-16T04:08:57.862Z,81.84
2023-04-16T04:11:24.746Z,81.62
2023-04-16T04:13:51.292Z,82.57
2023-04-16T04:16:18.061Z,82.75
2023-04-16T04:18:44.720Z,82.22
2023-04-16T04:21:11.343Z,82.83
2023-04-16T04:23:38.034Z,83.57
2023-04-16T04:26:05.767Z,83.48
2023-04-16T04:28:33.051Z,83.46
2023-04-16T04:31:00.645Z,84.18
2023-04-16T04:33:27.735Z,84.11
2023-04-16T04:35:54.967Z,83.52
2023-04-16T04:38:25.167Z,84.24
2023-04-16T04:40:52.860Z,83.64
2023-04-16T04:43:20.229Z,83.91
2023-04-16T04:45:46.974Z,83.41
2023-04-16T04:48:13.675Z,84.70
2023-04-16T04:50:41.103Z,84.88
2023-04-16T04:53:10.448Z,84.90
2023-04-16T04:55:38.988Z,84.57
2023-04-16T04:58:06.854Z,84.77
2023-04-16T05:00:34.710Z,85.28
2023-04-16T05:03:06.872Z,84.60
2023-04-16T05:05:33.604Z,85.51
2023-04-16T05:08:00.232Z,84.98
2023-04-16T05:10:28.210Z,85.07
2023-04-16T05:12:54.855Z,84.22
2023-04-16T05:15:21.617Z,84.57
2023-04-16T05:17:48.229Z,83.56
2023-04-16T05:20:14.957Z,82.63
2023-04-16T05:22:41.569Z,82.61
2023-04-16T05:25:08.848Z,82.26
2023-04-16T05:27:37.144Z,81.63
2023-04-16T05:30:04.329Z,78.64
2023-04-16T05:32:31.020Z,74.56
2023-04-16T05:34:57.781Z,71.33
2023-04-16T05:37:24.365Z,68.76
2023-04-16T05:39:51.155Z,67.90
2023-04-16T05:42:17.743Z,66.29
2023-04-16T05:44:44.331Z,65.50
2023-04-16T05:47:11.033Z,64.93
2023-04-16T05:49:37.669Z,64.39
2023-04-16T05:52:05.683Z,62.91
2023-04-16T05:54:32.283Z,62.80
2023-04-16T05:56:59.576Z,62.19
2023-04-16T05:59:26.296Z,62.15
2023-04-16T06:01:52.869Z,62.38
2023-04-16T06:04:19.526Z,62.61
2023-04-16T06:06:46.313Z,59.09
2023-04-16T06:09:12.915Z,58.05
2023-04-16T06:11:39.616Z,61.43
2023-04-16T06:14:06.242Z,61.02
2023-04-16T06:16:32.893Z,66.34
2023-04-16T06:18:59.591Z,63.31
2023-04-16T06:21:26.701Z,63.54
2023-04-16T06:23:55.053Z,62.62
2023-04-16T06:26:21.699Z,62.95
2023-04-16T06:28:48.432Z,62.44
2023-04-16T06:31:15.039Z,59.87
2023-04-16T06:33:41.694Z,60.20
2023-04-16T06:36:08.260Z,58.06
2023-04-16T06:38:36.035Z,61.23
2023-04-16T06:41:02.617Z,62.45
2023-04-16T06:43:30.147Z,62.16
2023-04-16T06:45:56.707Z,62.47
2023-04-16T06:48:23.280Z,57.62
2023-04-16T06:50:49.983Z,61.00
2023-04-16T06:53:16.620Z,59.56
2023-04-16T06:55:43.192Z,58.33
2023-04-16T06:58:09.917Z,59.30
2023-04-16T07:00:36.492Z,60.48
2023-04-16T07:03:04.260Z,60.85
2023-04-16T07:05:32.748Z,57.36
2023-04-16T07:07:59.540Z,50.97
2023-04-16T07:10:26.261Z,58.59
2023-04-16T07:12:52.914Z,57.58
2023-04-16T07:15:19.587Z,61.14
2023-04-16T07:17:46.335Z,61.71
2023-04-16T07:20:12.914Z,58.94
2023-04-16T07:22:39.529Z,56.58
2023-04-16T07:25:06.466Z,51.90
2023-04-16T07:27:33.050Z,58.77
2023-04-16T07:30:03.418Z,56.38
2023-04-16T07:32:30.099Z,53.12
2023-04-16T07:34:57.058Z,54.30
2023-04-16T07:37:23.597Z,54.62
2023-04-16T07:39:50.185Z,53.55
2023-04-16T07:42:19.295Z,53.62
2023-04-16T07:44:46.099Z,51.76
2023-04-16T07:47:12.718Z,52.23
2023-04-16T07:49:39.531Z,43.33
2023-04-16T07:52:06.129Z,42.73
2023-04-16T07:54:32.735Z,42.15
2023-04-16T07:56:59.269Z,48.68
2023-04-16T07:59:26.279Z,42.69
2023-04-16T08:01:56.491Z,43.00
2023-04-16T08:04:25.763Z,41.04
2023-04-16T08:06:53.819Z,54.16
2023-04-16T08:09:21.702Z,43.82
2023-04-16T08:11:49.989Z,48.85
2023-04-16T08:14:17.836Z,50.28
2023-04-16T08:16:45.001Z,45.09
2023-04-16T08:19:11.746Z,49.12
2023-04-16T08:21:38.697Z,47.96
2023-04-16T08:24:05.542Z,40.15
2023-04-16T08:26:32.123Z,42.42
2023-04-16T08:28:58.699Z,46.10
2023-04-16T08:31:26.348Z,48.91
2023-04-16T08:33:53.074Z,35.01
2023-04-16T08:36:19.712Z,36.10
2023-04-16T08:38:46.629Z,37.73
2023-04-16T08:41:14.049Z,34.37
2023-04-16T08:43:45.273Z,38.16
2023-04-16T08:46:12.697Z,37.51
2023-04-16T08:48:43.498Z,35.65
2023-04-16T08:51:11.199Z,41.42
2023-04-16T08:53:59.531Z,37.92
2023-04-16T08:56:27.222Z,37.68
2023-04-16T08:58:55.298Z,39.70
2023-04-16T09:01:22.327Z,31.51
2023-04-16T09:03:49.429Z,36.72
2023-04-16T09:06:17.535Z,41.39
2023-04-16T09:08:45.763Z,35.18
2023-04-16T09:11:13.854Z,34.63
2023-04-16T09:13:40.396Z,32.79
2023-04-16T09:16:10.979Z,37.06
2023-04-16T09:18:37.649Z,33.95
2023-04-16T09:21:04.829Z,36.43
2023-04-16T09:23:31.718Z,40.51
2023-04-16T09:25:59.489Z,34.58
2023-04-16T09:28:39.973Z,34.76
2023-04-16T09:31:10.958Z,34.90
2023-04-16T09:33:37.661Z,35.26
2023-04-16T09:36:05.812Z,36.11
2023-04-16T09:38:52.264Z,37.12
2023-04-16T09:41:19.942Z,34.86
2023-04-16T09:44:02.102Z,35.07
2023-04-16T09:46:35.013Z,34.05
2023-04-16T09:49:15.645Z,34.85
2023-04-16T09:51:47.002Z,36.92
2023-04-16T09:54:13.752Z,37.84
2023-04-16T09:56:46.418Z,33.64
2023-04-16T09:59:20.489Z,33.58
2023-04-16T10:01:47.281Z,34.91
2023-04-16T10:04:13.923Z,33.78
2023-04-16T10:06:40.638Z,35.75
2023-04-16T10:09:09.380Z,33.82
2023-04-16T10:11:37.158Z,36.33
2023-04-16T10:14:03.858Z,33.64
2023-04-16T10:16:31.079Z,34.35
2023-04-16T10:18:58.975Z,34.57
2023-04-16T10:21:26.505Z,33.05
2023-04-16T10:23:53.319Z,32.33
2023-04-16T10:26:20.110Z,33.05
2023-04-16T10:28:46.984Z,35.52
2023-04-16T10:31:14.015Z,33.81
2023-04-16T10:33:42.124Z,34.97
2023-04-16T10:36:09.971Z,36.00
2023-04-16T10:38:40.134Z,38.05
2023-04-16T10:41:07.928Z,38.83
2023-04-16T10:43:41.107Z,36.58
2023-04-16T10:46:33.151Z,34.68
2023-04-16T10:49:15.280Z,33.98
2023-04-16T10:51:42.222Z,36.17
2023-04-16T10:54:08.896Z,36.65
2023-04-16T10:56:36.733Z,38.65
2023-04-16T10:59:07.846Z,38.38
2023-04-16T11:01:36.652Z,37.61
2023-04-16T11:04:22.070Z,37.88
2023-04-16T11:07:04.297Z,38.78
2023-04-16T11:10:02.443Z,40.94
2023-04-16T11:12:29.125Z,39.85
2023-04-16T11:15:01.228Z,38.81
2023-04-16T11:17:39.126Z,40.48
2023-04-16T11:20:18.879Z,37.37
2023-04-16T11:22:48.503Z,38.23
2023-04-16T11:25:26.406Z,38.19
2023-04-16T11:27:53.681Z,37.48
2023-04-16T11:30:36.857Z,38.23
2023-04-16T11:33:04.749Z,37.99
2023-04-16T11:35:31.572Z,36.22
2023-04-16T11:38:01.099Z,37.68
2023-04-16T11:40:31.497Z,37.55
2023-04-16T11:43:13.891Z,37.67
2023-04-16T11:45:55.490Z,38.09
2023-04-16T11:48:22.262Z,37.32
2023-04-16T11:50:56.510Z,37.16
2023-04-16T11:53:23.093Z,38.88
2023-04-16T11:55:49.819Z,38.22
2023-04-16T11:58:16.651Z,37.75
2023-04-16T12:00:45.157Z,36.85
2023-04-16T12:03:12.024Z,37.16
2023-04-16T12:05:40.776Z,35.70
2023-04-16T12:08:08.675Z,36.68
2023-04-16T12:10:37.652Z,36.05
2023-04-16T12:13:15.387Z,35.00
2023-04-16T12:15:53.563Z,36.37
2023-04-16T12:18:23.270Z,36.01
2023-04-16T12:20:53.467Z,35.74
2023-04-16T12:23:26.981Z,35.19
2023-04-16T12:25:54.331Z,37.20
2023-04-16T12:28:34.994Z,36.85
2023-04-16T12:31:02.783Z,36.45
2023-04-16T12:33:29.538Z,36.12
2023-04-16T12:35:56.834Z,37.91
2023-04-16T12:38:24.602Z,36.96
2023-04-16T12:40:51.986Z,36.99
2023-04-16T12:43:19.849Z,37.40
2023-04-16T12:45:46.598Z,37.29
2023-04-16T12:48:14.727Z,37.77
2023-04-16T12:50:44.171Z,37.41
2023-04-16T12:53:11.593Z,36.75
2023-04-16T12:55:38.797Z,36.63
2023-04-16T12:58:05.761Z,36.92
2023-04-16T13:00:32.856Z,37.32
2023-04-16T13:02:59.734Z,37.46
2023-04-16T13:05:27.184Z,38.15
2023-04-16T13:07:55.119Z,36.85
2023-04-16T13:10:22.216Z,36.35
2023-04-16T13:12:49.191Z,36.62
2023-04-16T13:15:41.447Z,36.43
2023-04-16T13:18:08.413Z,36.84
2023-04-16T13:20:36.048Z,36.06
2023-04-16T13:23:04.930Z,37.07
2023-04-16T13:25:31.908Z,37.00
2023-04-16T13:27:58.478Z,37.20
2023-04-16T13:30:26.131Z,36.12
2023-04-16T13:32:52.708Z,36.57
2023-04-16T13:35:19.318Z,37.20
2023-04-16T13:37:51.796Z,37.69
2023-04-16T13:40:18.445Z,38.88
2023-04-16T13:42:59.509Z,38.62
2023-04-16T13:45:28.856Z,39.70
2023-04-16T13:47:57.262Z,38.49
2023-04-16T13:50:26.331Z,39.57
2023-04-16T13:52:53.978Z,38.53
2023-04-16T13:55:30.606Z,38.54
2023-04-16T13:57:57.361Z,38.36
2023-04-16T14:00:25.500Z,38.05
2023-04-16T14:02:52.715Z,38.25
2023-04-16T14:05:19.565Z,38.05
2023-04-16T14:07:46.383Z,38.10
2023-04-16T14:10:13.028Z,37.67
2023-04-16T14:12:39.808Z,38.07
2023-04-16T14:15:07.590Z,39.01
2023-04-16T14:17:34.227Z,38.40
2023-04-16T14:20:01.029Z,39.16
2023-04-16T14:22:27.733Z,39.75
2023-04-16T14:24:54.308Z,39.80
2023-04-16T14:27:21.038Z,40.24
2023-04-16T14:29:47.683Z,41.24
2023-04-16T14:32:14.678Z,40.40
2023-04-16T14:34:41.265Z,40.36
2023-04-16T14:37:07.845Z,40.11
2023-04-16T14:39:34.497Z,39.70
2023-04-16T14:42:01.094Z,41.69
2023-04-16T14:44:27.691Z,40.49
2023-04-16T14:46:55.317Z,39.99
2023-04-16T14:49:21.916Z,40.32
2023-04-16T14:51:49.019Z,40.93
2023-04-16T14:54:15.773Z,40.66
2023-04-16T14:56:42.363Z,40.46
2023-04-16T14:59:09.273Z,39.63
2023-04-16T15:01:39.558Z,40.48
2023-04-16T15:04:06.741Z,39.53
2023-04-16T15:06:34.011Z,39.47
2023-04-16T15:09:01.217Z,40.63
2023-04-16T15:11:28.696Z,39.86
2023-04-16T15:13:55.345Z,41.04
2023-04-16T15:16:21.970Z,42.31
2023-04-16T15:18:50.819Z,41.98
2023-04-16T15:21:17.430Z,42.42
2023-04-16T15:23:44.119Z,41.98
2023-04-16T15:26:10.735Z,41.18
2023-04-16T15:28:37.333Z,41.28
2023-04-16T15:31:04.360Z,41.21
2023-04-16T15:33:31.170Z,41.21
2023-04-16T15:35:57.766Z,40.35
2023-04-16T15:38:24.342Z,40.75
2023-04-16T15:40:50.985Z,40.18
2023-04-16T15:43:17.593Z,40.94
2023-04-16T15:45:44.223Z,41.58
2023-04-16T15:48:10.979Z,41.60
2023-04-16T15:50:37.609Z,41.50
2023-04-16T15:53:04.201Z,40.65
2023-04-16T15:55:32.396Z,40.22
2023-04-16T15:57:58.967Z,40.68
2023-04-16T16:00:26.008Z,41.43
2023-04-16T16:02:52.843Z,42.02
2023-04-16T16:05:19.561Z,41.24
2023-04-16T16:07:46.434Z,40.13
2023-04-16T16:10:13.479Z,40.12
2023-04-16T16:12:40.862Z,41.43
2023-04-16T16:15:07.867Z,40.36
2023-04-16T16:17:34.552Z,40.61
2023-04-16T16:20:01.388Z,40.87
2023-04-16T16:22:28.596Z,41.18
2023-04-16T16:24:56.089Z,41.54
2023-04-16T16:27:23.040Z,41.03
2023-04-16T16:29:49.768Z,41.01
2023-04-16T16:32:16.699Z,40.85
2023-04-16T16:34:43.356Z,42.14
2023-04-16T16:37:10.061Z,43.21
2023-04-16T16:42:21.171Z,44.55
2023-04-16T16:44:48.844Z,44.64
2023-04-16T16:47:15.538Z,44.58
2023-04-16T16:49:45.897Z,45.23
2023-04-16T16:52:12.563Z,45.74
2023-04-16T16:55:18.654Z,47.38
2023-04-16T16:57:47.040Z,47.46
2023-04-16T17:00:15.154Z,46.94
2023-04-16T17:02:42.075Z,47.09
2023-04-16T17:05:09.393Z,47.18
2023-04-16T17:07:36.510Z,48.18
2023-04-16T17:10:06.079Z,47.67
2023-04-16T17:12:33.390Z,48.58
2023-04-16T17:15:00.085Z,47.26
2023-04-16T17:17:28.099Z,48.73
2023-04-16T17:19:54.877Z,48.21
2023-04-16T17:22:21.754Z,48.37
2023-04-16T17:24:48.407Z,47.92
2023-04-16T17:27:15.043Z,47.88
2023-04-16T17:29:41.693Z,47.06
2023-04-16T17:32:08.419Z,48.08
2023-04-16T17:34:35.517Z,48.33
2023-04-16T17:37:02.203Z,47.11
2023-04-16T17:39:31.982Z,47.51
2023-04-16T17:42:01.198Z,47.63
2023-04-16T17:44:28.190Z,47.44
2023-04-16T17:46:56.023Z,47.24
2023-04-16T17:49:22.857Z,47.59
2023-04-16T17:51:49.505Z,48.06
2023-04-16T17:54:16.132Z,47.54
2023-04-16T17:56:42.798Z,47.42
2023-04-16T17:59:09.419Z,47.30
2023-04-16T18:01:36.232Z,47.16
2023-04-16T18:04:02.910Z,47.17
2023-04-16T18:06:29.644Z,47.76
2023-04-16T18:08:56.779Z,47.70
2023-04-16T18:11:23.329Z,47.31
2023-04-16T18:13:49.939Z,48.17
2023-04-16T18:16:17.371Z,48.02
2023-04-16T18:18:44.922Z,47.90
2023-04-16T18:21:12.378Z,47.64
2023-04-16T18:23:42.900Z,48.27
2023-04-16T18:26:11.097Z,48.80
2023-04-16T18:28:37.946Z,48.29
2023-04-16T18:31:06.800Z,48.62
2023-04-16T18:33:54.253Z,48.77
2023-04-16T18:36:21.190Z,49.00
2023-04-16T18:39:00.198Z,48.22
2023-04-16T18:41:28.029Z,49.16
2023-04-16T18:43:57.922Z,49.50
2023-04-16T18:46:25.280Z,50.58
2023-04-16T18:48:53.099Z,50.07
2023-04-16T18:51:19.700Z,51.33
2023-04-16T18:53:47.079Z,49.92
2023-04-16T18:56:15.452Z,52.17
2023-04-16T18:58:43.207Z,52.52
2023-04-16T19:01:13.008Z,52.63
2023-04-16T19:03:40.028Z,53.11
2023-04-16T19:06:06.810Z,54.89
2023-04-16T19:08:33.730Z,55.35
2023-04-16T19:11:00.411Z,55.47
2023-04-16T19:13:27.145Z,57.03
2023-04-16T19:16:01.176Z,57.27
2023-04-16T19:18:28.070Z,58.14
2023-04-16T19:21:01.271Z,59.34
2023-04-16T19:23:28.233Z,59.54
2023-04-16T19:25:57.874Z,57.08
2023-04-16T19:28:25.561Z,58.50
2023-04-16T19:30:52.955Z,59.00
2023-04-16T19:33:20.085Z,59.12
2023-04-16T19:35:47.542Z,59.82
2023-04-16T19:38:14.307Z,59.71
2023-04-16T19:40:43.716Z,60.12
2023-04-16T19:43:10.416Z,59.51
2023-04-16T19:45:46.194Z,59.95
2023-04-16T19:48:13.528Z,59.25
2023-04-16T19:50:41.391Z,59.08
2023-04-16T19:53:08.996Z,59.08
2023-04-16T19:55:35.872Z,59.47
2023-04-16T19:58:06.278Z,58.18
2023-04-16T20:00:33.969Z,59.55
2023-04-16T20:03:00.860Z,60.86
2023-04-16T20:05:28.419Z,61.28
2023-04-16T20:07:55.902Z,62.52
2023-04-16T20:10:22.999Z,62.44
2023-04-16T20:12:50.869Z,63.51
2023-04-16T20:15:18.396Z,63.93
2023-04-16T20:17:45.124Z,63.50
2023-04-16T20:20:11.850Z,62.85
2023-04-16T20:22:39.527Z,63.18
2023-04-16T20:25:07.199Z,61.19
2023-04-16T20:27:34.099Z,62.05
2023-04-16T20:30:01.905Z,62.98
2023-04-16T20:32:28.858Z,63.58
2023-04-16T20:34:55.726Z,62.91
2023-04-16T20:37:22.688Z,61.55
2023-04-16T20:39:50.269Z,65.25
2023-04-16T20:42:16.867Z,67.01
2023-04-16T20:44:50.302Z,67.53
2023-04-16T20:47:17.327Z,68.90
2023-04-16T20:49:47.313Z,69.70
2023-04-16T20:52:14.816Z,68.86
2023-04-16T20:54:41.560Z,67.78
2023-04-16T20:57:08.370Z,67.88
2023-04-16T20:59:36.828Z,67.43
2023-04-16T21:02:03.747Z,67.56
2023-04-16T21:04:30.534Z,67.54
2023-04-16T21:06:57.392Z,67.60
2023-04-16T21:09:24.601Z,67.23
2023-04-16T21:11:51.434Z,67.21
2023-04-16T21:14:18.417Z,66.55
2023-04-16T21:16:45.211Z,63.92
2023-04-16T21:19:12.016Z,65.03
2023-04-16T21:21:38.948Z,66.44
2023-04-16T21:24:05.957Z,64.29
2023-04-16T21:26:32.572Z,64.97
2023-04-16T21:28:59.223Z,65.36
2023-04-16T21:31:26.170Z,66.33
2023-04-16T21:33:52.804Z,66.50
2023-04-16T21:36:19.605Z,65.71
2023-04-16T21:38:49.782Z,64.89
2023-04-16T21:41:16.854Z,66.01
2023-04-16T21:43:43.579Z,67.41
2023-04-16T21:46:10.457Z,66.45
2023-04-16T21:48:37.121Z,65.46
2023-04-16T21:51:07.087Z,66.37
2023-04-16T21:53:34.069Z,67.04
2023-04-16T21:56:00.784Z,67.93
2023-04-16T21:58:27.412Z,69.81
2023-04-16T22:00:54.383Z,67.92
2023-04-16T22:03:28.200Z,63.55
2023-04-16T22:06:00.835Z,65.21
2023-04-16T22:08:28.924Z,66.70
2023-04-16T22:10:59.624Z,68.56
2023-04-16T22:13:26.526Z,69.40
2023-04-16T22:15:53.604Z,69.79
2023-04-16T22:18:20.358Z,69.76
2023-04-16T22:20:51.025Z,68.08
2023-04-16T22:23:17.737Z,68.82
2023-04-16T22:25:44.526Z,67.26
2023-04-16T22:28:11.383Z,69.37
2023-04-16T22:30:38.207Z,67.90
2023-04-16T22:33:05.296Z,68.17
2023-04-16T22:35:31.974Z,67.44
2023-04-16T22:37:58.582Z,67.62
2023-04-16T22:40:25.148Z,67.39
2023-04-16T22:42:51.715Z,67.69
2023-04-16T22:45:18.384Z,67.04
2023-04-16T22:47:45.100Z,66.34
2023-04-16T22:50:11.839Z,66.93
2023-04-16T22:52:38.465Z,69.24
2023-04-16T22:55:05.662Z,69.96
2023-04-16T22:57:32.628Z,70.56
2023-04-16T22:59:59.168Z,72.39
2023-04-16T23:02:26.059Z,72.04
2023-04-16T23:04:52.725Z,72.96
2023-04-16T23:07:19.308Z,73.09
2023-04-16T23:09:46.112Z,72.89
2023-04-16T23:12:12.738Z,73.72
2023-04-16T23:14:39.465Z,73.73
2023-04-16T23:17:06.029Z,74.52
2023-04-16T23:19:32.611Z,75.47
2023-04-16T23:21:59.221Z,74.91
2023-04-16T23:24:26.527Z,76.13
2023-04-16T23:26:53.233Z,75.98
2023-04-16T23:29:20.832Z,76.78
2023-04-16T23:31:47.817Z,75.50
2023-04-16T23:34:14.528Z,75.19
2023-04-16T23:36:41.213Z,76.11
2023-04-16T23:39:07.834Z,75.88
2023-04-16T23:41:34.781Z,75.25
2023-04-16T23:44:01.402Z,75.66
2023-04-16T23:46:28.030Z,75.20
2023-04-16T23:48:55.432Z,75.66
2023-04-16T23:51:22.153Z,76.02
2023-04-16T23:53:48.849Z,76.78
2023-04-16T23:56:15.957Z,76.70
2023-04-16T23:58:42.560Z,76.14
